Latest Weather Observations for Coonabarabran Airport

IDN60801

Issued at 4:35 pm EDT Saturday 1 November 2014 (issued every 30 minutes, with the page automatically refreshed every 10 minutes)

About weather observations | Map of weather stations | Latest weather observations for NSW | Other Formats
Station Details ID: 064017 Name: COONABARABRAN AIRPORT AWS Lat: -31.33 Lon: 149.27 Height: 645.0 m
Data from the previous 72 hours. | See also: Recent months for locations in New South Wales
Date/Time
EDT
Temp
°C
App
Temp
°C
Dew
Point
Rel
Hum
%
Delta-T
°C
Wind Press
QNH
hPa
Press
MSL
hPa
Rain
since 9 am
mm
Dir
 
Spd
km/h
Gust
km/h
Spd
kts
Gust
kts
01/04:30pm 27.6 25.0 14.9 45 7.9 NW 22 37 12 20 1006.8 1003.8 1.2
01/04:00pm 26.1 24.3 18.8 64 4.8 NW 26 37 14 20 1007.0 1004.0 1.2
01/03:30pm 21.0 15.9 15.8 72 3.2 NW 37 61 20 33 1007.8 1004.7 1.2
01/03:23pm 23.9 19.2 14.3 55 5.8 NW 32 61 17 33 1007.6 1004.5 0.2
01/03:00pm 27.2 22.5 14.2 44 8.0 NW 32 44 17 24 1008.0 1005.0 0.0
01/02:30pm 28.1 21.7 13.2 39 9.0 NNW 39 54 21 29 1007.6 1004.5 0.0
01/02:15pm 27.7 22.3 14.0 43 8.4 N 35 54 19 29 1007.4 1004.4 0.0
01/02:00pm 27.8 22.5 14.1 43 8.4 N 35 52 19 28 1007.7 1004.6 0.0
01/01:47pm 27.5 22.9 14.5 45 8.0 NNW 32 50 17 27 1007.7 1004.6 0.0
01/01:30pm 27.3 21.4 14.7 46 7.8 N 39 54 21 29 1007.4 1004.4 0.0
01/01:00pm 26.5 20.8 14.3 47 7.5 N 37 54 20 29 1007.9 1004.9 0.0
01/12:30pm 26.4 19.6 14.2 47 7.5 N 43 57 23 31 1008.5 1005.5 0.0
01/12:00pm 26.8 20.4 14.2 46 7.7 NNW 41 59 22 32 1009.3 1006.3 0.0
01/11:36am 26.8 20.6 14.9 48 7.4 N 41 59 22 32 1009.4 1006.4 0.0
01/11:30am 25.4 19.0 14.2 50 6.8 N 41 57 22 31 1009.5 1006.5 0.0
01/11:00am 25.8 18.8 14.3 49 7.0 N 44 65 24 35 1009.8 1006.8 0.0
01/10:30am 25.3 17.9 14.1 50 6.8 N 46 65 25 35 1009.9 1007.8 0.0
01/10:00am 24.8 18.0 14.9 54 6.1 N 44 67 24 36 1010.1 1008.0 0.0
01/09:31am 23.4 16.5 14.4 57 5.5 N 44 63 24 34 1010.4 1008.3 0.0
01/09:30am 23.5 16.6 14.5 57 5.5 N 44 57 24 31 1010.2 1008.1 0.0
01/09:02am 22.0 16.8 14.6 63 4.5 N 35 54 19 29 1010.6 1008.5 0.0
01/09:00am 21.8 16.2 14.4 63 4.5 N 37 54 20 29 1010.6 1008.5 -
01/08:30am 20.5 16.0 14.8 70 3.4 N 32 44 17 24 1010.6 1008.5 -
01/08:00am 18.6 16.1 16.2 86 1.5 N 24 35 13 19 1010.7 1008.6 -
01/07:30am 17.4 14.6 15.4 88 1.2 N 24 35 13 19 1010.4 1008.3 -
01/07:00am 17.2 13.5 15.0 87 1.3 N 28 33 15 18 1010.4 1008.3 -
01/06:30am 17.4 13.3 14.9 85 1.5 N 30 41 16 22 1010.3 1008.2 -
01/06:00am 17.5 12.8 14.4 82 1.8 N 32 43 17 23 1010.3 1008.2 -
01/05:30am 17.7 13.0 14.2 80 2.1 N 32 43 17 23 1010.2 1008.1 -
01/03:00am 18.4 13.5 13.7 74 2.8 N 32 44 17 24 1010.6 1008.5 -
01/02:00am 19.0 15.1 13.4 70 3.3 N 26 37 14 20 1011.3 1009.2 0.8
01/01:30am 19.2 16.6 13.8 71 3.2 N 20 28 11 15 1011.5 1009.4 0.8
01/01:00am 18.7 17.0 14.6 77 2.5 N 17 19 9 10 1011.8 1009.7 0.8
01/12:30am 18.9 17.5 14.4 75 2.7 N 15 20 8 11 1012.0 1009.9 0.8
01/12:00am 18.4 18.0 15.3 82 1.9 N 11 15 6 8 1012.2 1010.1 0.8
 
Date/Time
EDT
Temp
°C
App
Temp
°C
Dew
Point
Rel
Hum
%
Delta-T
°C
Wind Press
QNH
hPa
Press
MSL
hPa
Rain
since 9 am
mm
Dir
 
Spd
km/h
Gust
km/h
Spd
kts
Gust
kts
31/11:30pm 18.6 17.9 15.3 81 2.0 N 13 17 7 9 1012.4 1010.3 0.8
31/11:00pm 18.7 18.3 15.2 80 2.1 N 11 13 6 7 1012.4 1010.3 0.8
31/10:30pm 17.8 17.9 16.5 92 0.8 NNW 11 13 6 7 1013.3 1011.2 0.8
31/10:00pm 17.8 17.1 16.5 92 0.8 N 15 20 8 11 1014.3 1012.2 0.8
31/09:30pm 17.7 16.3 17.1 96 0.4 N 20 28 11 15 1015.3 1013.2 0.6
31/09:00pm 17.6 12.2 17.1 97 0.3 NNW 41 59 22 32 1014.8 1012.7 0.6
31/08:30pm 18.7 11.0 15.6 82 1.9 NW 50 72 27 39 1013.3 1011.2 0.0
31/08:00pm 20.5 11.0 13.5 64 4.1 NW 56 83 30 45 1012.9 1010.8 0.0
31/07:47pm 25.1 13.7 10.6 40 8.3 NW 61 80 33 43 1012.0 1009.9 0.0
31/07:44pm 25.9 15.0 9.7 36 9.2 NW 57 72 31 39 1011.8 1009.7 0.0
31/07:41pm 27.3 20.7 8.7 31 10.5 NW 33 63 18 34 1011.7 1009.6 0.0
31/07:30pm 27.7 25.4 7.5 28 11.1 N 9 11 5 6 1011.3 1009.2 0.0
31/07:00pm 28.7 26.4 7.3 26 11.9 N 9 13 5 7 1010.6 1008.5 0.0
31/06:30pm 29.7 26.3 7.6 25 12.3 N 15 22 8 12 1010.2 1008.1 0.0
31/06:00pm 30.1 27.0 7.3 24 12.7 N 13 24 7 13 1010.2 1008.1 0.0
31/05:30pm 30.3 26.8 5.6 21 13.4 N 13 24 7 13 1010.2 1008.1 0.0
31/05:00pm 30.6 25.8 5.8 21 13.5 NNW 20 28 11 15 1010.5 1008.4 0.0
31/04:30pm 31.7 26.1 5.3 19 14.3 NNW 24 33 13 18 1010.7 1008.6 0.0
31/04:00pm 30.7 25.1 5.2 20 13.8 NNW 24 30 13 16 1011.1 1008.9 0.0
31/03:30pm 31.8 26.9 5.3 19 14.4 N 20 33 11 18 1011.4 1009.3 0.0
31/03:00pm 32.0 27.2 5.5 19 14.5 WNW 20 26 11 14 1011.9 1009.8 0.0
31/02:30pm 32.2 26.0 4.1 17 15.0 NNW 26 41 14 22 1012.6 1010.4 0.0
31/02:00pm 32.2 26.3 5.7 19 14.5 NW 26 43 14 23 1013.1 1011.0 0.0
31/01:30pm 31.3 26.5 5.7 20 14.0 NNW 20 37 11 20 1013.6 1011.5 0.0
31/01:00pm 31.2 25.8 6.3 21 13.7 N 24 35 13 19 1014.2 1012.1 0.0
31/12:30pm 30.2 25.1 6.1 22 13.2 NNW 22 33 12 18 1014.5 1012.4 0.0
31/12:00pm 29.8 24.8 6.5 23 12.8 N 22 35 12 19 1015.0 1012.9 0.0
31/11:30am 30.8 25.3 6.0 21 13.6 N 24 35 13 19 1015.6 1013.6 0.0
31/11:00am 28.6 24.0 8.3 28 11.4 N 22 32 12 17 1015.7 1013.7 0.0
31/10:30am 27.9 23.2 7.7 28 11.2 N 22 33 12 18 1016.4 1014.3 0.0
31/10:00am 26.8 22.5 7.8 30 10.5 N 20 30 11 16 1016.6 1014.5 0.0
31/09:30am 25.5 20.2 6.7 30 10.1 N 24 30 13 16 1016.6 1014.5 0.0
31/09:00am 25.2 20.2 3.8 25 10.9 N 19 26 10 14 1016.6 1014.5 0.0
31/08:30am 25.7 20.2 0.4 19 12.2 N 19 24 10 13 1016.5 1014.4 0.0
31/08:00am 24.4 19.1 -0.7 19 11.7 NNE 17 22 9 12 1016.2 1014.1 0.0
31/07:30am 23.2 18.2 -1.0 20 11.1 NNE 15 19 8 10 1015.9 1013.8 0.0
31/07:00am 22.0 16.6 -1.3 21 10.6 NNE 17 19 9 10 1015.7 1013.7 0.0
31/06:30am 21.2 15.7 -2.0 21 10.3 NNE 17 20 9 11 1015.6 1013.6 0.0
31/06:00am 20.3 14.8 -2.1 22 9.9 NNE 17 19 9 10 1015.4 1013.4 0.0
31/05:30am 20.8 15.7 -2.3 21 10.2 N 15 20 8 11 1015.5 1013.5 0.0
31/05:00am 20.8 16.0 -2.3 21 10.2 NNE 13 17 7 9 1015.3 1013.2 0.0
31/04:30am 20.7 15.9 -2.4 21 10.1 NE 13 13 7 7 1015.1 1013.0 0.0
31/04:00am 20.3 15.6 -2.1 22 9.9 ENE 13 15 7 8 1015.0 1012.9 0.0
31/03:30am 20.5 16.5 -2.5 21 10.1 ENE 9 11 5 6 1015.1 1013.0 0.0
31/03:00am 21.7 18.0 -2.9 19 10.8 E 7 13 4 7 1015.3 1013.2 0.0
31/02:30am 22.3 18.8 -3.1 18 11.2 SE 6 13 3 7 1015.4 1013.4 0.0
31/02:00am 22.5 19.0 -3.0 18 11.2 SE 6 13 3 7 1015.6 1013.6 0.0
31/01:30am 22.6 19.1 -2.9 18 11.3 S 6 11 3 6 1016.0 1013.9 0.0
31/01:00am 22.3 18.6 -3.1 18 11.1 SSW 7 17 4 9 1016.3 1014.2 0.0
31/12:30am 23.0 19.3 -2.6 18 11.4 SSW 7 13 4 7 1016.5 1014.4 0.0
31/12:00am 23.0 19.3 -2.6 18 11.4 WSW 7 15 4 8 1016.6 1014.5 0.0
 
Date/Time
EDT
Temp
°C
App
Temp
°C
Dew
Point
Rel
Hum
%
Delta-T
°C
Wind Press
QNH
hPa
Press
MSL
hPa
Rain
since 9 am
mm
Dir
 
Spd
km/h
Gust
km/h
Spd
kts
Gust
kts
30/11:30pm 22.7 19.3 -2.1 19 11.1 SW 6 13 3 7 1016.5 1014.4 0.0
30/11:00pm 22.4 18.9 -1.6 20 10.8 SW 7 13 4 7 1016.6 1014.5 0.0
30/10:30pm 22.5 19.0 -1.6 20 10.9 WSW 7 11 4 6 1016.4 1014.3 0.0
30/10:00pm 22.0 17.7 -1.3 21 10.6 W 11 13 6 7 1016.4 1014.3 0.0
30/09:30pm 22.3 18.1 -1.1 21 10.7 WSW 11 13 6 7 1016.4 1014.3 0.0
30/09:00pm 23.5 19.9 -2.2 18 11.6 SW 7 13 4 7 1016.2 1014.1 0.0
30/08:30pm 23.9 19.9 -2.6 17 11.9 SW 9 11 5 6 1015.9 1013.8 0.0
30/08:00pm 24.1 20.5 -2.4 17 12.0 SSW 7 11 4 6 1015.6 1013.6 0.0
30/07:30pm 25.1 21.4 -2.5 16 12.5 SSW 7 13 4 7 1015.4 1013.4 0.0
30/07:00pm 26.6 22.7 -1.3 16 13.1 SSW 9 13 5 7 1015.2 1013.1 0.0
30/06:30pm 28.0 23.8 -1.0 15 13.8 SW 11 15 6 8 1015.0 1012.9 0.0
30/06:00pm 29.0 25.1 -1.2 14 14.5 SW 9 15 5 8 1014.9 1012.8 0.0
30/05:30pm 29.0 24.5 -0.2 15 14.2 SSW 13 22 7 12 1014.9 1012.8 0.0
30/05:00pm 29.2 25.2 0.8 16 14.1 SW 11 19 6 10 1014.9 1012.8 0.0
30/04:30pm 28.8 25.4 -0.4 15 14.2 SSW 7 19 4 10 1015.0 1012.9 0.0
30/04:00pm 28.7 24.2 -0.5 15 14.1 WNW 13 20 7 11 1015.2 1013.1 0.0
30/03:30pm 29.2 24.6 -1.0 14 14.5 SW 13 20 7 11 1015.5 1013.5 0.0
30/03:00pm 28.4 23.7 -1.6 14 14.2 SW 13 19 7 10 1016.0 1013.9 0.0
30/02:30pm 28.1 24.3 1.6 18 13.2 SW 11 19 6 10 1016.3 1014.2 0.0
30/02:00pm 28.5 24.0 1.9 18 13.4 SW 15 22 8 12 1016.7 1014.6 0.0
30/01:30pm 27.4 22.1 1.8 19 12.8 W 19 26 10 14 1017.0 1015.0 0.0
30/01:00pm 27.3 22.6 3.1 21 12.3 SW 17 20 9 11 1017.3 1015.3 0.0
30/12:30pm 27.9 25.2 5.5 24 12.0 NW 9 20 5 11 1017.6 1015.5 0.0
30/12:00pm 26.4 23.0 4.2 24 11.5 WNW 11 20 6 11 1017.9 1015.8 0.0
30/11:30am 27.1 23.6 5.4 25 11.5 NW 13 20 7 11 1018.3 1016.3 0.0
30/11:00am 26.1 23.4 5.7 27 10.8 S 9 17 5 9 1018.4 1016.4 0.0
30/10:30am 24.8 21.8 4.0 26 10.6 NNE 9 17 5 9 1018.5 1016.5 0.0
30/10:00am 24.1 21.3 3.4 26 10.4 N 7 11 4 6 1018.8 1016.8 0.0
30/09:30am 23.4 20.1 4.4 29 9.7 N 11 17 6 9 1018.9 1016.9 0.0
30/09:00am 23.0 19.8 3.0 27 9.9 N 9 13 5 7 1018.8 1016.8 0.0
30/08:30am 22.7 19.7 4.2 30 9.4 ENE 9 13 5 7 1018.7 1016.7 0.0
30/08:00am 21.7 19.3 4.3 32 8.7 ENE 6 13 3 7 1018.4 1016.4 0.0
30/07:30am 20.0 17.5 3.7 34 8.0 S 6 11 3 6 1017.9 1015.8 0.0
30/07:00am 18.7 16.0 3.7 37 7.3 SSW 7 15 4 8 1017.7 1015.6 0.0
30/06:30am 17.7 14.5 2.8 37 7.1 SW 9 15 5 8 1017.5 1015.4 0.0
30/06:00am 17.3 14.1 2.9 38 6.8 SW 9 15 5 8 1017.1 1015.1 0.0
30/05:30am 17.4 14.6 3.0 38 6.9 SSW 7 15 4 8 1016.8 1014.8 0.0
30/05:00am 17.0 13.8 3.0 39 6.6 SSW 9 15 5 8 1016.6 1014.5 0.0
30/04:30am 16.8 13.9 2.8 39 6.6 S 7 13 4 7 1016.6 1014.5 0.0
30/04:00am 16.7 13.4 2.7 39 6.6 SSW 9 11 5 6 1016.6 1014.5 0.0
30/03:30am 16.6 13.0 3.0 40 6.4 SSW 11 13 6 7 1016.7 1014.6 0.0
30/03:00am 16.7 13.1 2.7 39 6.6 SSW 11 13 6 7 1016.8 1014.8 0.0
30/02:30am 17.3 13.2 2.5 37 7.0 SSW 13 15 7 8 1016.9 1014.9 0.0
30/02:00am 17.8 14.1 2.5 36 7.2 SSW 11 13 6 7 1017.0 1015.0 0.0
30/01:30am 18.3 14.6 2.6 35 7.5 SSW 11 13 6 7 1017.2 1015.2 0.0
30/01:00am 18.3 14.6 2.2 34 7.6 SSW 11 15 6 8 1017.3 1015.3 0.0
30/12:30am 18.8 15.1 2.2 33 7.9 SSW 11 15 6 8 1017.6 1015.5 0.0
30/12:00am 18.9 14.8 2.3 33 7.9 SW 13 17 7 9 1017.7 1015.6 0.0
 
Date/Time
EDT
Temp
°C
App
Temp
°C
Dew
Point
Rel
Hum
%
Delta-T
°C
Wind Press
QNH
hPa
Press
MSL
hPa
Rain
since 9 am
mm
Dir
 
Spd
km/h
Gust
km/h
Spd
kts
Gust
kts
29/11:30pm 19.4 15.3 2.3 32 8.1 SW 13 17 7 9 1017.7 1015.6 0.0
29/11:00pm 19.4 15.3 2.3 32 8.1 SW 13 15 7 8 1017.8 1015.7 0.0
29/10:30pm 19.7 15.7 2.6 32 8.2 SW 13 17 7 9 1017.8 1015.7 0.0
29/10:00pm 19.8 15.8 2.6 32 8.3 SW 13 17 7 9 1017.8 1015.7 0.0
29/09:30pm 20.5 16.5 2.8 31 8.6 WSW 13 15 7 8 1017.7 1015.6 0.0
29/09:00pm 20.7 16.7 3.0 31 8.6 WSW 13 17 7 9 1017.5 1015.4 0.0
29/08:30pm 21.3 17.3 3.0 30 9.0 WSW 13 17 7 9 1017.1 1015.1 0.0
29/08:00pm 21.6 18.1 3.3 30 9.0 WSW 11 15 6 8 1017.0 1015.0 0.0
29/07:30pm 22.4 18.9 3.5 29 9.4 SW 11 17 6 9 1016.7 1014.6 0.0
29/07:00pm 24.4 20.9 3.7 26 10.5 SW 11 15 6 8 1016.4 1014.3 0.0
29/06:30pm 25.6 21.2 2.9 23 11.4 SW 15 20 8 11 1016.3 1014.2 0.0
29/06:00pm 26.3 22.4 3.5 23 11.6 SSW 13 20 7 11 1016.2 1014.1 0.0
29/05:30pm 26.7 22.9 3.9 23 11.8 SW 13 19 7 10 1016.0 1013.9 0.0
29/05:00pm 26.4 21.8 3.6 23 11.7 SW 17 24 9 13 1016.0 1013.9 0.0

Other Formats:

Comma delimited format used in spreadsheet applications
http://www.bom.gov.au/fwo/IDN60801/IDN60801.95728.axf

JavaScript Object Notation format (JSON) in row-major order
http://www.bom.gov.au/fwo/IDN60801/IDN60801.95728.json